createdAt,value
2023-03-23T15:59:27.208Z,11.80
2023-03-23T16:01:55.216Z,7.03
2023-03-23T16:04:23.484Z,7.57
2023-03-23T16:06:53.142Z,8.17
2023-03-23T16:09:22.379Z,8.53
2023-03-23T16:11:51.812Z,9.40
2023-03-23T16:14:19.829Z,9.67
2023-03-23T16:16:51.048Z,10.40
2023-03-23T16:19:20.789Z,11.17
2023-03-23T16:21:49.769Z,11.30
2023-03-23T16:24:18.058Z,12.23
2023-03-23T16:26:46.813Z,11.43
2023-03-23T16:29:36.966Z,14.37
2023-03-23T16:32:07.103Z,16.17
2023-03-23T16:34:36.764Z,16.40
2023-03-23T16:37:04.815Z,15.17
2023-03-23T16:39:32.932Z,15.00
2023-03-23T16:42:00.920Z,20.97
2023-03-23T16:44:33.778Z,20.70
2023-03-23T16:47:04.518Z,21.83
2023-03-23T16:49:33.793Z,17.00
2023-03-23T16:52:02.994Z,23.10
2023-03-23T16:54:31.452Z,21.67
2023-03-23T16:57:00.002Z,25.67
2023-03-23T16:59:30.751Z,28.40
2023-03-23T17:02:03.617Z,31.97
2023-03-23T17:04:33.879Z,30.27
2023-03-23T17:07:02.990Z,31.40
2023-03-23T17:09:33.796Z,29.40
2023-03-23T17:12:04.628Z,28.20
2023-03-23T17:14:34.238Z,29.07
2023-03-23T17:17:05.914Z,33.07
2023-03-23T17:19:54.205Z,33.43
2023-03-23T17:22:28.416Z,41.40
2023-03-23T17:25:01.156Z,42.27
2023-03-23T17:27:43.063Z,41.80
2023-03-23T17:30:30.361Z,42.20
2023-03-23T17:33:10.448Z,42.83
2023-03-23T17:35:49.592Z,38.50
2023-03-23T17:40:49.051Z,30.23
2023-03-23T17:43:19.904Z,36.80
2023-03-23T17:45:49.335Z,37.03
2023-03-23T17:48:20.487Z,32.83
2023-03-23T17:51:07.785Z,44.10
2023-03-23T17:53:37.403Z,43.30
2023-03-23T17:56:07.104Z,43.20
2023-03-23T17:58:36.759Z,33.53
2023-03-23T18:01:06.645Z,38.67
2023-03-23T18:03:35.996Z,40.73
2023-03-23T18:06:10.276Z,33.37
2023-03-23T18:08:39.475Z,31.63
2023-03-23T18:11:08.288Z,34.47
2023-03-23T18:13:37.935Z,36.70
2023-03-23T18:16:10.602Z,37.87
2023-03-23T18:18:41.209Z,40.40
2023-03-23T18:21:11.160Z,40.40
2023-03-23T18:23:52.910Z,32.27
2023-03-23T18:26:26.087Z,42.23
2023-03-23T18:28:54.481Z,47.87
2023-03-23T18:31:24.297Z,46.60
2023-03-23T18:33:54.918Z,49.53
2023-03-23T18:36:26.274Z,33.67
2023-03-23T18:38:56.641Z,38.57
2023-03-23T18:41:27.073Z,46.00
2023-03-23T18:43:57.527Z,39.23
2023-03-23T18:46:27.606Z,33.50
2023-03-23T18:48:56.495Z,32.30
2023-03-23T18:51:26.307Z,27.83
2023-03-23T18:53:54.393Z,29.70
2023-03-23T18:56:24.052Z,22.87
2023-03-23T18:58:53.692Z,31.70
2023-03-23T19:01:21.866Z,28.10
2023-03-23T19:03:51.209Z,23.13
2023-03-23T19:06:22.743Z,21.47
2023-03-23T19:08:52.227Z,17.07
2023-03-23T19:11:25.142Z,20.90
2023-03-23T19:14:02.453Z,19.03
2023-03-23T19:16:32.346Z,19.30
2023-03-23T19:19:03.676Z,18.00
2023-03-23T19:21:32.848Z,17.93
2023-03-23T19:24:01.794Z,16.87
2023-03-23T19:26:34.857Z,23.60
2023-03-23T19:29:25.186Z,17.53
2023-03-23T19:31:53.476Z,17.87
2023-03-23T19:34:22.986Z,17.60
2023-03-23T19:36:56.437Z,19.17
2023-03-23T19:39:32.180Z,17.77
2023-03-23T19:42:00.383Z,17.93
2023-03-23T19:44:28.878Z,17.30
2023-03-23T19:46:57.667Z,20.83
2023-03-23T19:49:29.942Z,20.03
2023-03-23T19:52:08.369Z,20.53
2023-03-23T19:54:40.801Z,19.87
2023-03-23T19:57:12.441Z,20.13
2023-03-23T19:59:40.428Z,23.80
2023-03-23T20:02:08.767Z,24.67
2023-03-23T20:04:39.934Z,26.93
2023-03-23T20:07:08.508Z,28.83
2023-03-23T20:09:38.540Z,25.47
2023-03-23T20:12:08.459Z,23.57
2023-03-23T20:14:38.459Z,25.60
2023-03-23T20:17:09.938Z,27.33
2023-03-23T20:19:40.377Z,22.93
2023-03-23T20:22:08.611Z,22.27
2023-03-23T20:24:38.032Z,22.13
2023-03-23T20:27:06.777Z,22.47
2023-03-23T20:29:35.016Z,21.50
2023-03-23T20:32:03.128Z,25.20
2023-03-23T20:34:31.609Z,23.33
2023-03-23T20:37:02.661Z,23.53
2023-03-23T20:39:32.581Z,22.80
2023-03-23T20:42:03.478Z,22.80
2023-03-23T20:44:35.052Z,22.80
2023-03-23T20:47:03.922Z,23.60
2023-03-23T20:49:32.487Z,22.47
2023-03-23T20:52:02.265Z,24.63
2023-03-23T20:54:33.418Z,21.63
2023-03-23T20:57:04.199Z,22.83
2023-03-23T20:59:47.539Z,24.30
2023-03-23T21:02:22.054Z,24.63
2023-03-23T21:04:52.756Z,24.03
2023-03-23T21:07:25.876Z,27.20
2023-03-23T21:09:53.769Z,22.80
2023-03-23T21:12:24.430Z,22.80
2023-03-23T21:14:58.517Z,21.40
2023-03-23T21:17:26.709Z,21.27
2023-03-23T21:20:02.615Z,18.90
2023-03-23T21:22:42.983Z,18.77
2023-03-23T21:25:11.592Z,21.40
2023-03-23T21:27:40.064Z,19.70
2023-03-23T21:30:09.459Z,22.10
2023-03-23T21:32:39.885Z,21.00
2023-03-23T21:35:12.454Z,19.77
2023-03-23T21:37:44.497Z,17.10
2023-03-23T21:40:18.901Z,17.30
2023-03-23T21:42:50.529Z,16.53
2023-03-23T21:45:22.528Z,17.40
2023-03-23T21:47:57.949Z,15.67
2023-03-23T21:50:31.522Z,16.03
2023-03-23T21:53:09.462Z,15.37
2023-03-23T21:55:38.312Z,16.07
2023-03-23T21:58:16.564Z,15.50
2023-03-23T22:00:49.965Z,14.97
2023-03-23T22:03:22.685Z,14.80
2023-03-23T22:06:11.956Z,15.63
2023-03-23T22:08:48.251Z,15.53
2023-03-23T22:11:21.795Z,15.57
2023-03-23T22:13:55.718Z,19.60
2023-03-23T22:16:24.615Z,17.27
2023-03-23T22:18:55.342Z,16.87
2023-03-23T22:21:26.036Z,16.73
2023-03-23T22:23:57.980Z,16.87
2023-03-23T22:26:28.715Z,17.23
2023-03-23T22:29:00.147Z,17.13
2023-03-23T22:31:34.118Z,17.83
2023-03-23T22:34:03.189Z,18.57
2023-03-23T22:36:33.163Z,16.13
2023-03-23T22:39:03.996Z,16.40
2023-03-23T22:41:36.201Z,16.03
2023-03-23T22:44:09.562Z,16.70
2023-03-23T22:46:40.962Z,17.33
2023-03-23T22:49:08.940Z,18.87
2023-03-23T22:51:40.430Z,19.67
2023-03-23T22:54:12.485Z,21.80
2023-03-23T22:56:43.203Z,20.43
2023-03-23T22:59:14.432Z,19.73
2023-03-23T23:01:42.338Z,21.50
2023-03-23T23:04:11.582Z,19.40
2023-03-23T23:06:40.029Z,19.77
2023-03-23T23:09:15.861Z,18.47
2023-03-23T23:11:48.668Z,19.23
2023-03-23T23:14:20.013Z,20.70
2023-03-23T23:16:48.643Z,21.63
2023-03-23T23:19:19.913Z,21.23
2023-03-23T23:21:48.904Z,22.30
2023-03-23T23:24:21.196Z,19.40
2023-03-23T23:26:51.066Z,18.83
2023-03-23T23:29:27.437Z,18.90
2023-03-23T23:31:57.442Z,17.20
2023-03-23T23:34:27.457Z,16.97
2023-03-23T23:36:59.679Z,15.63
2023-03-23T23:39:30.465Z,16.53
2023-03-23T23:41:59.738Z,16.27
2023-03-23T23:44:30.314Z,15.73
2023-03-23T23:47:02.631Z,16.53
2023-03-23T23:49:32.811Z,16.77
2023-03-23T23:52:04.797Z,17.27
2023-03-23T23:54:41.367Z,19.20
2023-03-23T23:57:15.610Z,20.93
2023-03-23T23:59:49.000Z,23.20
